Time;durP1;ratioP1;P1;durP2;ratioP2;P2;SDS_P1;SDS_P2;PMS_P1;PMS_P2;Temp;Humidity;BMP_temperature;BMP_pressure;BME280_temperature;BME280_humidity;BME280_pressure;Samples;Min_cycle;Max_cycle;Signal;HPM_P1;HPM_P2
2022/04/02 00:00:17;;;;;;;18.60;11.00;;;;;;;-0.45;85.30;97180.95;221054;1274;22542;-76
2022/04/02 00:05:25;;;;;;;16.70;11.70;;;;;;;-0.46;85.32;97175.57;220802;1274;24406;-75
2022/04/02 00:10:50;;;;;;;17.50;11.80;;;;;;;-0.46;85.40;97170.52;221284;1274;23907;-73
2022/04/02 00:15:52;;;;;;;16.70;11.90;;;;;;;-0.45;85.44;97176.36;220913;1274;22914;-74
2022/04/02 00:20:55;;;;;;;19.50;13.10;;;;;;;-0.44;85.45;97176.16;221117;1274;22613;-74
2022/04/02 00:25:59;;;;;;;19.10;13.10;;;;;;;-0.45;85.35;97180.84;221284;1272;22606;-73
2022/04/02 00:31:13;;;;;;;20.00;12.90;;;;;;;-0.45;85.41;97187.30;220866;1274;24253;-75
2022/04/02 00:36:21;;;;;;;18.90;13.20;;;;;;;-0.45;85.48;97187.47;220756;1274;22625;-75
2022/04/02 00:41:24;;;;;;;15.00;10.60;;;;;;;-0.46;85.43;97186.30;221245;1274;22561;-76
2022/04/02 00:46:28;;;;;;;22.80;13.10;;;;;;;-0.47;85.44;97188.83;221178;1274;24269;-75
2022/04/02 00:51:36;;;;;;;19.70;13.00;;;;;;;-0.47;85.26;97185.77;220998;1274;22540;-75
2022/04/02 00:56:48;;;;;;;17.70;12.20;;;;;;;-0.46;85.33;97189.10;220779;1276;22805;-75
2022/04/02 01:02:04;;;;;;;29.20;15.40;;;;;;;-0.44;85.52;97188.11;221061;1274;25427;-75
2022/04/02 01:07:12;;;;;;;17.90;13.20;;;;;;;-0.44;85.29;97183.70;220783;1275;23140;-74
2022/04/02 01:12:38;;;;;;;18.80;12.00;;;;;;;-0.44;85.38;97181.31;220867;1274;23567;-74
2022/04/02 01:17:40;;;;;;;19.00;13.30;;;;;;;-0.46;85.42;97179.25;220983;1274;23858;-74
2022/04/02 01:22:52;;;;;;;21.80;14.80;;;;;;;-0.45;85.65;97179.36;220952;1274;23959;-74
2022/04/02 01:27:55;;;;;;;23.00;14.70;;;;;;;-0.47;85.27;97182.56;220772;1274;24193;-75
2022/04/02 01:32:59;;;;;;;21.20;13.20;;;;;;;-0.47;85.52;97183.93;220835;1274;22617;-75
2022/04/02 01:38:09;;;;;;;27.70;16.50;;;;;;;-0.48;85.73;97183.30;221125;1274;22487;-74
2022/04/02 01:43:12;;;;;;;25.30;14.20;;;;;;;-0.50;85.62;97183.66;220796;1274;22690;-74
2022/04/02 01:48:21;;;;;;;23.60;15.70;;;;;;;-0.50;85.62;97190.45;221136;1274;23462;-74
2022/04/02 01:53:29;;;;;;;20.60;13.30;;;;;;;-0.51;85.50;97196.11;220998;1274;22470;-74
2022/04/02 01:58:31;;;;;;;22.10;15.20;;;;;;;-0.55;85.54;97192.83;220930;1274;22578;-74
2022/04/02 02:03:35;;;;;;;21.10;14.30;;;;;;;-0.57;85.70;97195.83;221065;1274;22691;-75
2022/04/02 02:08:38;;;;;;;23.80;14.90;;;;;;;-0.59;85.65;97203.88;220901;1274;22474;-75
2022/04/02 02:13:56;;;;;;;21.90;15.60;;;;;;;-0.59;85.90;97205.08;220833;1275;22476;-75
2022/04/02 02:19:06;;;;;;;21.10;13.20;;;;;;;-0.59;85.88;97211.64;221123;1275;22572;-75
2022/04/02 02:24:09;;;;;;;20.00;13.70;;;;;;;-0.62;85.74;97219.52;221206;1275;22581;-75
2022/04/02 02:29:12;;;;;;;24.80;15.90;;;;;;;-0.63;85.89;97218.66;220691;1276;22610;-74
2022/04/02 02:39:40;;;;;;;24.10;15.40;;;;;;;-0.68;85.86;97220.11;221091;1274;22662;-74
2022/04/02 02:45:03;;;;;;;21.80;13.90;;;;;;;-0.69;85.97;97223.63;221011;1275;25434;-73
2022/04/02 02:50:18;;;;;;;;;;;;;;;;;;;;;
2022/04/02 02:55:51;;;;;;;;;;;;;;;;;;;;;
2022/04/02 03:00:54;;;;;;;20.60;13.40;;;;;;;-0.74;86.21;97224.80;221266;1274;22470;-75
2022/04/02 03:06:19;;;;;;;24.40;15.20;;;;;;;-0.76;86.18;97226.11;220982;1276;22568;-73
2022/04/02 03:11:22;;;;;;;24.60;15.10;;;;;;;-0.77;86.17;97226.80;220933;1274;24207;-73
2022/04/02 03:16:24;;;;;;;25.50;15.10;;;;;;;-0.75;86.37;97227.16;220763;1273;23939;-72
2022/04/02 03:21:48;;;;;;;22.60;14.60;;;;;;;-0.75;86.26;97224.85;220800;1276;22557;-73
2022/04/02 03:26:57;;;;;;;20.10;12.70;;;;;;;-0.74;86.23;97227.23;220450;1276;22535;-73
2022/04/02 03:32:19;;;;;;;16.60;11.10;;;;;;;-0.77;86.36;97225.52;220773;1276;22616;-75
2022/04/02 03:37:37;;;;;;;20.80;12.70;;;;;;;-0.78;86.22;97226.20;220763;1276;22899;-73
2022/04/02 03:42:41;;;;;;;20.40;11.20;;;;;;;-0.80;86.20;97226.98;220496;1276;22479;-74
2022/04/02 03:47:46;;;;;;;16.20;10.60;;;;;;;-0.81;86.42;97229.75;220972;1276;24389;-75
2022/04/02 03:52:49;;;;;;;13.90;8.60;;;;;;;-0.82;86.47;97229.80;220958;1276;22539;-73
2022/04/02 03:57:56;;;;;;;16.80;10.40;;;;;;;-0.84;86.40;97236.36;220336;1276;22610;-74
2022/04/02 04:03:00;;;;;;;13.60;9.40;;;;;;;-0.83;86.36;97236.62;220444;1276;22560;-73
2022/04/02 04:08:06;;;;;;;13.70;9.60;;;;;;;-0.85;86.63;97239.34;220850;1275;22564;-74
2022/04/02 04:13:20;;;;;;;13.70;8.50;;;;;;;-0.85;86.61;97246.61;220999;1274;22614;-71
2022/04/02 04:18:35;;;;;;;14.10;9.50;;;;;;;-0.88;86.51;97255.00;220979;1275;22554;-73
2022/04/02 04:23:38;;;;;;;11.20;8.30;;;;;;;-0.90;86.18;97257.61;220787;1276;25338;-74
2022/04/02 04:28:41;;;;;;;14.10;9.50;;;;;;;-0.92;86.39;97257.91;220828;1276;22525;-72
2022/04/02 04:33:48;;;;;;;15.00;8.70;;;;;;;-0.92;86.30;97257.96;220956;1274;22491;-74
2022/04/02 04:38:50;;;;;;;14.80;10.30;;;;;;;-0.91;86.30;97259.60;220792;1275;25412;-74
2022/04/02 04:43:56;;;;;;;17.80;10.70;;;;;;;-0.91;86.33;97266.23;220670;1276;22588;-73
2022/04/02 04:49:12;;;;;;;13.70;9.00;;;;;;;-0.91;86.20;97271.70;220557;1276;25375;-74
2022/04/02 04:54:19;;;;;;;14.80;9.80;;;;;;;-0.90;86.31;97274.64;220825;1274;22680;-73
2022/04/02 04:59:22;;;;;;;16.40;9.90;;;;;;;-0.89;86.18;97279.42;221072;1275;22705;-73
2022/04/02 05:04:27;;;;;;;16.50;10.80;;;;;;;-0.88;86.29;97281.77;221299;1275;22745;-73
2022/04/02 05:09:31;;;;;;;13.70;8.40;;;;;;;-0.88;86.14;97282.29;220883;1276;22539;-73
2022/04/02 05:14:37;;;;;;;17.00;11.50;;;;;;;-0.87;86.35;97284.09;221082;1275;22579;-73
2022/04/02 05:19:43;;;;;;;16.40;10.50;;;;;;;-0.83;86.33;97289.43;221224;1274;22541;-73
2022/04/02 05:24:46;;;;;;;13.30;9.20;;;;;;;-0.78;86.43;97290.10;220946;1275;22568;-73
2022/04/02 05:29:57;;;;;;;16.70;11.80;;;;;;;-0.76;86.23;97294.21;220707;1276;22683;-74
2022/04/02 05:35:00;;;;;;;13.80;10.20;;;;;;;-0.73;86.10;97297.28;220828;1275;23845;-74
2022/04/02 05:40:38;;;;;;;16.30;10.80;;;;;;;-0.71;85.99;97294.89;221006;1275;22916;-74
2022/04/02 05:45:53;;;;;;;15.00;10.30;;;;;;;-0.68;86.17;97296.48;220886;1274;23871;-74
2022/04/02 05:51:05;;;;;;;13.90;10.30;;;;;;;-0.65;85.87;97300.77;221121;1274;22474;-75
2022/04/02 05:56:14;;;;;;;17.40;11.70;;;;;;;-0.62;85.97;97301.00;221227;1275;24316;-74
2022/04/02 06:01:20;;;;;;;16.70;11.60;;;;;;;-0.59;85.94;97306.66;221052;1274;25309;-75
2022/04/02 06:06:23;;;;;;;18.20;12.10;;;;;;;-0.56;86.03;97311.09;220788;1274;23962;-74
2022/04/02 06:11:27;;;;;;;20.20;13.80;;;;;;;-0.58;85.81;97311.20;221031;1274;22688;-71
2022/04/02 06:16:29;;;;;;;21.90;13.80;;;;;;;-0.57;85.90;97317.67;220878;1275;23768;-74
2022/04/02 06:21:33;;;;;;;19.10;13.30;;;;;;;-0.54;85.90;97317.85;220905;1276;24167;-74
2022/04/02 06:26:48;;;;;;;21.10;12.10;;;;;;;-0.54;85.84;97321.00;220998;1274;23799;-72
2022/04/02 06:32:05;;;;;;;17.30;12.30;;;;;;;-0.58;85.69;97331.71;220796;1275;22529;-74
2022/04/02 06:37:07;;;;;;;19.30;12.50;;;;;;;-0.59;85.67;97334.29;221143;1274;23104;-73
2022/04/02 06:42:12;;;;;;;18.00;11.50;;;;;;;-0.58;85.42;97332.19;220966;1274;24358;-74
2022/04/02 06:47:27;;;;;;;16.20;10.70;;;;;;;-0.58;85.45;97336.48;221337;1274;24214;-71
2022/04/02 06:52:30;;;;;;;17.90;11.80;;;;;;;-0.61;85.43;97335.68;221887;1274;24205;-74
2022/04/02 06:57:33;;;;;;;17.50;11.00;;;;;;;-0.57;85.28;97337.70;221394;1274;24252;-72
2022/04/02 07:02:35;;;;;;;17.00;9.80;;;;;;;-0.55;85.07;97346.71;222015;1274;25617;-73
2022/04/02 07:07:57;;;;;;;17.80;10.30;;;;;;;-0.54;84.76;97355.57;221538;1274;25250;-73
2022/04/02 07:13:00;;;;;;;16.40;9.90;;;;;;;-0.50;84.72;97357.08;221462;1274;22921;-74
2022/04/02 07:18:08;;;;;;;14.00;9.20;;;;;;;-0.42;84.70;97357.77;221544;1274;22603;-72
2022/04/02 07:23:13;;;;;;;12.60;9.00;;;;;;;-0.30;84.68;97358.22;221600;1275;22666;-71
2022/04/02 07:28:21;;;;;;;13.20;9.00;;;;;;;-0.17;84.72;97364.64;221473;1273;313002;-74
2022/04/02 07:33:24;;;;;;;14.60;10.90;;;;;;;-0.03;84.45;97373.63;221999;1273;25350;-75
2022/04/02 07:39:05;;;;;;;15.20;9.90;;;;;;;0.05;84.21;97376.20;221890;1272;22578;-71
2022/04/02 07:44:08;;;;;;;15.10;11.00;;;;;;;0.09;84.09;97377.91;221942;1273;22600;-75
2022/04/02 07:49:19;;;;;;;12.90;9.40;;;;;;;0.14;83.87;97382.10;221665;1274;22590;-76
2022/04/02 07:54:26;;;;;;;12.20;8.60;;;;;;;0.12;83.62;97389.52;221604;1273;22471;-74
2022/04/02 07:59:36;;;;;;;11.90;8.10;;;;;;;0.12;83.66;97387.99;221967;1274;22856;-74
2022/04/02 08:04:41;;;;;;;12.00;8.60;;;;;;;0.16;83.32;97388.54;221776;1274;22666;-74
2022/04/02 08:09:47;;;;;;;8.90;6.50;;;;;;;0.16;82.99;97392.59;221786;1274;23136;-74
2022/04/02 08:14:53;;;;;;;10.90;7.80;;;;;;;0.16;82.93;97393.39;221692;1274;22526;-71
2022/04/02 08:20:16;;;;;;;6.80;5.00;;;;;;;0.19;82.95;97401.83;221620;1274;22599;-73
2022/04/02 08:25:19;;;;;;;8.60;6.30;;;;;;;0.17;82.51;97408.19;221860;1274;22538;-73
2022/04/02 08:30:33;;;;;;;10.60;6.90;;;;;;;0.21;82.17;97416.42;222003;1274;22482;-73
2022/04/02 08:36:03;;;;;;;11.70;7.00;;;;;;;0.25;82.09;97417.08;221924;1274;24661;-74
2022/04/02 08:41:27;;;;;;;7.60;6.20;;;;;;;0.38;82.09;97417.69;221983;1274;22468;-72
2022/04/02 08:46:36;;;;;;;7.80;5.60;;;;;;;0.52;81.75;97422.71;221708;1274;22568;-74
2022/04/02 08:51:57;;;;;;;9.50;7.10;;;;;;;0.69;81.84;97425.69;222126;1273;23136;-72
2022/04/02 08:57:30;;;;;;;12.30;8.40;;;;;;;0.85;81.32;97428.71;222298;1273;24260;-72
2022/04/02 09:02:59;;;;;;;11.50;8.70;;;;;;;1.15;81.22;97438.73;221577;1273;22572;-72
2022/04/02 09:08:35;;;;;;;11.70;9.30;;;;;;;1.39;80.91;97437.36;221706;1274;22536;-73
2022/04/02 09:13:59;;;;;;;10.80;7.60;;;;;;;1.50;80.48;97445.52;221826;1274;22878;-70
2022/04/02 09:19:39;;;;;;;9.40;6.80;;;;;;;1.41;79.85;97448.30;221847;1273;25243;-72
2022/04/02 09:25:33;;;;;;;10.50;7.80;;;;;;;1.42;80.10;97444.71;221738;1274;22555;-72
2022/04/02 09:30:54;;;;;;;11.40;8.10;;;;;;;1.52;79.73;97451.05;221856;1274;22837;-71
2022/04/02 09:36:33;;;;;;;11.50;8.70;;;;;;;1.77;79.79;97458.59;221771;1274;24233;-73
2022/04/02 09:41:58;;;;;;;13.10;9.00;;;;;;;2.11;79.59;97462.02;221753;1274;22545;-72
2022/04/02 09:47:17;;;;;;;11.40;8.60;;;;;;;2.22;79.25;97465.73;221791;1273;22557;-72
2022/04/02 09:52:26;;;;;;;8.40;6.60;;;;;;;2.02;78.18;97470.42;221739;1273;22569;-72
2022/04/02 09:58:09;;;;;;;12.20;7.90;;;;;;;1.62;77.68;97472.83;221997;1273;22681;-72
2022/04/02 10:03:32;;;;;;;10.20;7.90;;;;;;;1.42;78.39;97473.20;221962;1273;22464;-73
2022/04/02 10:08:45;;;;;;;11.70;9.20;;;;;;;1.33;78.40;97480.00;221895;1273;22833;-73
2022/04/02 10:13:52;;;;;;;11.50;8.80;;;;;;;1.26;78.83;97480.45;221715;1274;22627;-72
2022/04/02 10:18:57;;;;;;;11.10;8.20;;;;;;;1.24;78.88;97481.13;221477;1273;25891;-72
2022/04/02 10:24:17;;;;;;;12.10;9.00;;;;;;;1.22;78.69;97480.70;221867;1273;25922;-71
2022/04/02 10:30:04;;;;;;;11.20;8.80;;;;;;;1.08;78.97;97490.94;221782;1271;24228;-73
2022/04/02 10:35:30;;;;;;;11.20;8.50;;;;;;;0.90;79.00;97492.02;221439;1274;24108;-75
2022/04/02 10:40:55;;;;;;;10.00;8.00;;;;;;;0.86;79.31;97498.43;221715;1273;22483;-73
2022/04/02 10:46:02;;;;;;;13.80;8.50;;;;;;;0.80;78.87;97497.86;221819;1273;25340;-73
2022/04/02 10:51:06;;;;;;;12.40;9.40;;;;;;;0.75;79.16;97501.85;221632;1274;23685;-73
2022/04/02 10:56:25;;;;;;;14.20;10.50;;;;;;;0.70;79.11;97505.94;221817;1273;22480;-73
2022/04/02 11:01:30;;;;;;;12.60;8.60;;;;;;;0.57;78.91;97510.65;222076;1273;24278;-73
2022/04/02 11:06:48;;;;;;;13.70;9.80;;;;;;;0.45;79.31;97511.11;222234;1272;22595;-73
2022/04/02 11:11:52;;;;;;;12.10;9.20;;;;;;;0.42;79.33;97514.20;221460;1273;24272;-73
2022/04/02 11:16:59;;;;;;;13.20;9.40;;;;;;;0.46;79.49;97516.64;221615;1273;24247;-70
2022/04/02 11:22:14;;;;;;;13.50;10.00;;;;;;;0.48;79.30;97521.20;221593;1273;22539;-72
2022/04/02 11:27:23;;;;;;;13.00;9.50;;;;;;;0.53;79.30;97524.17;221470;1273;22468;-72
2022/04/02 11:32:28;;;;;;;12.20;9.10;;;;;;;0.57;79.02;97531.11;221711;1273;22479;-72
2022/04/02 11:38:02;;;;;;;10.70;8.50;;;;;;;0.58;78.99;97535.48;221687;1273;22569;-72
2022/04/02 11:43:09;;;;;;;10.50;7.80;;;;;;;0.74;79.13;97532.63;221552;1274;22482;-70
2022/04/02 11:48:14;;;;;;;10.00;8.20;;;;;;;1.03;78.73;97536.59;221662;1272;23674;-72
2022/04/02 11:53:37;;;;;;;12.30;9.10;;;;;;;1.27;78.56;97539.28;221718;1273;22549;-72
2022/04/02 11:58:40;;;;;;;13.70;10.20;;;;;;;1.23;77.94;97538.59;221536;1273;24790;-72
2022/04/02 12:03:45;;;;;;;13.30;8.80;;;;;;;0.92;77.68;97545.02;221627;1273;22482;-70
2022/04/02 12:08:52;;;;;;;9.90;7.50;;;;;;;0.62;77.69;97548.63;221535;1273;22691;-71
2022/04/02 12:13:55;;;;;;;13.50;10.00;;;;;;;0.39;77.81;97561.12;221495;1273;22670;-73
2022/04/02 12:19:05;;;;;;;12.00;8.80;;;;;;;0.31;78.56;97567.23;221562;1273;22567;-73
2022/04/02 12:24:11;;;;;;;12.10;9.50;;;;;;;0.26;78.59;97569.61;221451;1271;22479;-73
2022/04/02 12:29:18;;;;;;;12.60;9.70;;;;;;;0.23;78.65;97571.89;221279;1273;22538;-73
2022/04/02 12:34:23;;;;;;;12.80;8.70;;;;;;;0.23;79.14;97576.85;221609;1273;22677;-73
2022/04/02 12:39:28;;;;;;;13.90;10.20;;;;;;;0.25;79.12;97578.46;221594;1272;24243;-72
2022/04/02 12:44:34;;;;;;;10.20;8.50;;;;;;;0.24;79.14;97583.13;221363;1274;22739;-73
2022/04/02 12:49:41;;;;;;;15.40;10.40;;;;;;;0.20;79.09;97586.09;221158;1273;24241;-72
2022/04/02 12:54:50;;;;;;;12.60;9.50;;;;;;;0.16;79.03;97587.33;221153;1274;25268;-72
2022/04/02 12:59:55;;;;;;;12.50;9.90;;;;;;;0.18;79.35;97593.47;221488;1273;23293;-72
2022/04/02 13:04:58;;;;;;;12.50;9.50;;;;;;;0.28;79.50;97594.81;221236;1274;22590;-72
2022/04/02 13:10:13;;;;;;;14.70;11.00;;;;;;;0.37;79.51;97601.47;221379;1273;22649;-72
2022/04/02 13:15:21;;;;;;;15.50;10.50;;;;;;;0.47;79.58;97605.52;221482;1273;23699;-71
2022/04/02 13:20:30;;;;;;;11.60;9.80;;;;;;;0.48;79.68;97607.67;221580;1273;22576;-72
2022/04/02 13:25:50;;;;;;;12.40;9.30;;;;;;;0.51;79.78;97607.23;221340;1273;22735;-73
2022/04/02 13:30:56;;;;;;;14.10;10.20;;;;;;;0.59;80.08;97613.45;221260;1273;22564;-73
2022/04/02 13:36:14;;;;;;;18.70;13.10;;;;;;;0.66;80.47;97617.94;221557;1273;22558;-74
2022/04/02 13:41:41;;;;;;;16.70;11.70;;;;;;;0.74;80.23;97621.27;221477;1273;23246;-72
2022/04/02 13:46:54;;;;;;;18.20;12.30;;;;;;;0.77;80.40;97622.61;221421;1273;24143;-71
2022/04/02 13:51:59;;;;;;;17.40;12.50;;;;;;;0.78;80.65;97624.82;221272;1273;22528;-70
2022/04/02 13:57:06;;;;;;;17.40;11.20;;;;;;;0.75;80.43;97622.95;221385;1273;22658;-72
2022/04/02 14:02:33;;;;;;;21.10;14.00;;;;;;;0.71;80.89;97624.14;221413;1273;23976;-71
2022/04/02 14:08:08;;;;;;;17.60;12.60;;;;;;;0.71;81.01;97629.95;221269;1273;25232;-72
2022/04/02 14:13:24;;;;;;;18.20;12.80;;;;;;;0.75;81.45;97623.96;221453;1273;25419;-72
2022/04/02 14:19:00;;;;;;;16.90;12.30;;;;;;;0.75;81.44;97622.16;221348;1271;22664;-72
2022/04/02 14:24:44;;;;;;;18.80;13.80;;;;;;;0.76;81.63;97622.61;221124;1273;22560;-71
2022/04/02 14:30:45;;;;;;;21.00;14.70;;;;;;;0.84;81.91;97617.75;221456;1273;25305;-72
2022/04/02 14:37:16;;;;;;;22.50;14.60;;;;;;;0.92;82.06;97623.61;221428;1273;22726;-72
2022/04/02 14:42:57;;;;;;;17.30;13.40;;;;;;;1.01;82.28;97619.39;220573;1274;22553;-72
2022/04/02 14:48:43;;;;;;;19.50;12.50;;;;;;;1.04;82.00;97619.78;221122;1276;23456;-72
2022/04/02 14:53:51;;;;;;;21.10;14.50;;;;;;;0.98;82.15;97621.27;221562;1273;22539;-71
2022/04/02 14:59:12;;;;;;;19.70;14.10;;;;;;;0.96;82.33;97621.95;221603;1273;25218;-72
2022/04/02 15:04:52;;;;;;;21.60;15.10;;;;;;;0.93;82.50;97628.30;221540;1273;25209;-72
2022/04/02 15:10:23;;;;;;;19.80;13.30;;;;;;;0.92;82.84;97631.77;221585;1273;22786;-71
2022/04/02 15:15:40;;;;;;;17.70;12.90;;;;;;;0.88;82.60;97630.98;221619;1273;24291;-73
2022/04/02 15:20:42;;;;;;;19.10;12.30;;;;;;;0.87;82.73;97636.81;221304;1273;23811;-72
2022/04/02 15:25:48;;;;;;;24.60;13.90;;;;;;;0.87;82.65;97638.44;221482;1273;22545;-72
2022/04/02 15:30:53;;;;;;;17.90;13.30;;;;;;;0.86;82.73;97641.55;221472;1273;24260;-73
2022/04/02 15:36:00;;;;;;;16.60;11.80;;;;;;;0.87;83.14;97641.34;221536;1273;22579;-73
2022/04/02 15:41:43;;;;;;;17.90;12.70;;;;;;;0.88;83.06;97644.25;221414;1272;22590;-71
2022/04/02 15:46:45;;;;;;;20.80;13.60;;;;;;;0.87;83.06;97650.20;221479;1273;23822;-71
2022/04/02 15:51:51;;;;;;;16.70;11.80;;;;;;;0.85;83.28;97654.30;221139;1273;24403;-71
2022/04/02 15:57:12;;;;;;;19.70;13.80;;;;;;;0.81;83.35;97656.44;221442;1274;23802;-71
2022/04/02 16:02:46;;;;;;;20.30;13.80;;;;;;;0.81;83.71;97666.77;221345;1274;24234;-71
2022/04/02 16:08:28;;;;;;;20.90;14.30;;;;;;;0.80;83.61;97673.77;221383;1274;22584;-72
2022/04/02 16:13:31;;;;;;;21.30;13.30;;;;;;;0.74;83.63;97682.80;221354;1274;24213;-72
2022/04/02 16:18:35;;;;;;;22.40;15.50;;;;;;;0.68;83.58;97683.84;220785;1276;23007;-71
2022/04/02 16:23:38;;;;;;;27.60;16.30;;;;;;;0.67;83.90;97681.52;221394;1276;23398;-72
2022/04/02 16:28:45;;;;;;;31.50;20.30;;;;;;;0.67;84.16;97687.22;221272;1274;25538;-72
2022/04/02 16:33:49;;;;;;;27.20;18.10;;;;;;;0.70;84.40;97690.56;221377;1274;24237;-72
2022/04/02 16:39:05;;;;;;;31.30;21.00;;;;;;;0.71;84.34;97696.64;221511;1273;25362;-72
2022/04/02 16:44:21;;;;;;;31.50;19.50;;;;;;;0.76;84.66;97698.58;221404;1273;24361;-72
2022/04/02 16:49:24;;;;;;;29.30;19.50;;;;;;;0.74;84.15;97703.20;221446;1273;25321;-72
2022/04/02 16:54:29;;;;;;;31.00;20.00;;;;;;;0.75;84.72;97709.91;221215;1273;22563;-72
2022/04/02 16:59:36;;;;;;;32.70;20.30;;;;;;;0.74;84.55;97717.02;220780;1274;25934;-72
2022/04/02 17:04:54;;;;;;;34.70;20.00;;;;;;;0.72;84.30;97719.16;221062;1273;23829;-72
2022/04/02 17:09:58;;;;;;;33.60;21.10;;;;;;;0.67;84.60;97723.80;221532;1271;25323;-71
2022/04/02 17:15:00;;;;;;;34.50;22.80;;;;;;;0.66;84.76;97734.98;221376;1273;23969;-72
2022/04/02 17:20:03;;;;;;;38.10;23.00;;;;;;;0.64;84.92;97741.28;221366;1273;25256;-72
2022/04/02 17:25:08;;;;;;;46.30;26.60;;;;;;;0.66;85.01;97746.98;221374;1271;23865;-71
2022/04/02 17:30:27;;;;;;;68.30;39.80;;;;;;;0.67;84.97;97748.90;221596;1273;22617;-71
2022/04/02 17:35:32;;;;;;;39.20;24.00;;;;;;;0.68;84.79;97748.16;221613;1273;25358;-71
2022/04/02 17:40:34;;;;;;;41.30;23.60;;;;;;;0.69;85.07;97751.40;221310;1273;25339;-72
2022/04/02 17:45:50;;;;;;;;;;;;;;;;;;;;;
2022/04/02 17:51:07;;;;;;;46.00;26.10;;;;;;;0.76;85.26;97759.64;221376;1273;22470;-71
2022/04/02 17:56:16;;;;;;;68.60;37.50;;;;;;;0.78;85.13;97768.30;221211;1274;23068;-71
2022/04/02 18:01:32;;;;;;;56.20;31.30;;;;;;;0.80;85.13;97770.70;221117;1274;23000;-74
2022/04/02 18:06:39;;;;;;;47.50;27.20;;;;;;;0.82;85.33;97778.77;221253;1274;22471;-72
2022/04/02 18:11:45;;;;;;;53.80;30.40;;;;;;;0.79;85.25;97785.77;221326;1274;22595;-72
2022/04/02 18:17:00;;;;;;;83.80;46.10;;;;;;;0.78;85.04;97791.45;221057;1273;22597;-72
2022/04/02 18:22:11;;;;;;;77.70;40.70;;;;;;;0.79;85.34;97799.95;220807;1274;22564;-71
2022/04/02 18:27:16;;;;;;;50.10;30.50;;;;;;;0.78;85.45;97800.05;221438;1274;22531;-71
2022/04/02 18:32:19;;;;;;;56.00;34.00;;;;;;;0.76;85.19;97808.35;220881;1274;22523;-71
2022/04/02 18:37:21;;;;;;;55.40;31.90;;;;;;;0.75;85.47;97812.40;221028;1274;23075;-73
2022/04/02 18:42:24;;;;;;;63.90;35.00;;;;;;;0.75;85.49;97821.58;221530;1273;25307;-71
2022/04/02 18:47:26;;;;;;;66.50;37.80;;;;;;;0.75;85.49;97820.27;221512;1273;22601;-72
2022/04/02 18:52:28;;;;;;;82.70;43.80;;;;;;;0.77;85.59;97811.73;221569;1273;25357;-72
2022/04/02 18:57:31;;;;;;;315.60;190.10;;;;;;;0.77;85.70;97812.58;221214;1273;22539;-72
2022/04/02 19:02:34;;;;;;;81.80;43.90;;;;;;;0.78;85.75;97819.23;221290;1273;22576;-72
2022/04/02 19:07:39;;;;;;;58.90;33.80;;;;;;;0.76;85.69;97836.99;221379;1273;22700;-73
2022/04/02 19:12:41;;;;;;;65.60;36.70;;;;;;;0.72;85.81;97841.05;221546;1273;22616;-72
2022/04/02 19:17:45;;;;;;;65.70;36.50;;;;;;;0.70;85.92;97844.05;221325;1273;23326;-71
2022/04/02 19:22:47;;;;;;;72.80;40.00;;;;;;;0.70;85.81;97847.88;221275;1273;22585;-72
2022/04/02 19:27:52;;;;;;;81.60;43.40;;;;;;;0.67;85.80;97853.71;220930;1273;199374;-72
2022/04/02 19:32:55;;;;;;;85.20;44.80;;;;;;;0.63;86.02;97856.93;221418;1273;24243;-71
2022/04/02 19:37:57;;;;;;;97.00;51.30;;;;;;;0.61;85.98;97863.08;221129;1273;24319;-71
2022/04/02 19:43:02;;;;;;;93.90;48.90;;;;;;;0.59;86.21;97860.41;221099;1274;23028;-72
2022/04/02 19:48:08;;;;;;;107.50;50.60;;;;;;;0.56;86.04;97862.48;221080;1274;22553;-71
2022/04/02 19:53:10;;;;;;;77.20;42.60;;;;;;;0.53;86.14;97867.14;221231;1274;22475;-72
2022/04/02 19:58:17;;;;;;;105.30;55.50;;;;;;;0.52;86.30;97870.55;221086;1274;22559;-72
2022/04/02 20:03:20;;;;;;;74.30;38.60;;;;;;;0.53;86.48;97866.67;221486;1274;22590;-72
2022/04/02 20:08:31;;;;;;;83.30;46.10;;;;;;;0.51;86.26;97867.08;220979;1274;22659;-72
2022/04/02 20:13:34;;;;;;;93.20;50.30;;;;;;;0.51;86.62;97863.84;221295;1274;22557;-73
2022/04/02 20:18:36;;;;;;;106.10;57.20;;;;;;;0.50;86.23;97857.95;220930;1276;22852;-71
2022/04/02 20:23:40;;;;;;;110.80;58.90;;;;;;;0.50;86.46;97864.52;221621;1274;22726;-73
2022/04/02 20:28:46;;;;;;;105.70;55.30;;;;;;;0.50;86.32;97867.44;221385;1274;22589;-72
2022/04/02 20:34:01;;;;;;;99.30;51.50;;;;;;;0.48;86.35;97873.77;221332;1274;24217;-72
2022/04/02 20:39:06;;;;;;;102.90;53.60;;;;;;;0.44;86.48;97874.73;220952;1275;22638;-72
2022/04/02 20:44:10;;;;;;;103.90;55.30;;;;;;;0.42;86.48;97878.33;221267;1274;22584;-73
2022/04/02 20:49:17;;;;;;;90.60;49.90;;;;;;;0.39;86.81;97879.88;221575;1273;23055;-72
2022/04/02 20:54:19;;;;;;;84.80;46.00;;;;;;;0.37;86.53;97889.86;221321;1273;22539;-72
2022/04/02 20:59:21;;;;;;;83.60;44.00;;;;;;;0.33;86.43;97897.29;220934;1276;22596;-72
2022/04/02 21:04:23;;;;;;;78.60;44.10;;;;;;;0.28;86.71;97893.22;220950;1274;22940;-72
2022/04/02 21:09:46;;;;;;;78.90;42.20;;;;;;;0.27;86.75;97893.16;220894;1273;23690;-72
2022/04/02 21:15:11;;;;;;;76.00;42.10;;;;;;;0.25;86.81;97892.18;221470;1274;22843;-71
2022/04/02 21:20:40;;;;;;;83.40;42.60;;;;;;;0.21;86.60;97899.34;221069;1276;24321;-72
2022/04/02 21:25:43;;;;;;;75.50;39.90;;;;;;;0.17;86.86;97901.08;221243;1274;23896;-72
2022/04/02 21:30:45;;;;;;;66.30;36.80;;;;;;;0.13;86.77;97900.34;221109;1274;22499;-72
2022/04/02 21:36:09;;;;;;;74.50;38.90;;;;;;;0.10;86.79;97904.61;220764;1276;22591;-72
2022/04/02 21:41:32;;;;;;;65.20;36.60;;;;;;;0.06;86.86;97904.58;221336;1273;23009;-72
2022/04/02 21:46:35;;;;;;;61.10;31.30;;;;;;;0.03;86.88;97906.73;221164;1274;25240;-72
2022/04/02 21:51:40;;;;;;;63.90;32.80;;;;;;;-0.03;86.73;97910.02;221159;1273;22622;-73
2022/04/02 21:56:43;;;;;;;37.60;22.80;;;;;;;-0.07;86.52;97908.09;220962;1274;22539;-71
2022/04/02 22:02:10;;;;;;;40.00;19.40;;;;;;;-0.10;86.08;97914.31;220994;1274;22654;-71
2022/04/02 22:07:15;;;;;;;41.10;20.70;;;;;;;-0.13;85.60;97920.17;220978;1276;22487;-71
2022/04/02 22:12:17;;;;;;;37.10;20.20;;;;;;;-0.15;85.77;97923.84;221128;1275;25248;-72
2022/04/02 22:17:19;;;;;;;33.40;16.90;;;;;;;-0.19;85.39;97924.20;220926;1274;22708;-71
2022/04/02 22:22:21;;;;;;;29.20;13.50;;;;;;;-0.20;85.21;97930.75;220737;1276;25344;-71
2022/04/02 22:27:24;;;;;;;13.60;6.90;;;;;;;-0.23;84.67;97938.96;221004;1275;25381;-71
2022/04/02 22:32:26;;;;;;;13.30;5.80;;;;;;;-0.35;84.03;97943.08;221013;1275;25542;-72
2022/04/02 22:37:32;;;;;;;12.40;6.00;;;;;;;-0.42;83.18;97946.56;221325;1274;22622;-71
2022/04/02 22:42:35;;;;;;;13.20;6.50;;;;;;;-0.48;83.23;97952.81;220889;1276;24171;-72
2022/04/02 22:47:37;;;;;;;17.30;6.50;;;;;;;-0.55;83.01;97954.58;221186;1275;23270;-71
2022/04/02 22:52:39;;;;;;;14.50;5.60;;;;;;;-0.61;82.65;97958.84;221311;1273;25309;-71
2022/04/02 22:57:52;;;;;;;13.00;5.50;;;;;;;-0.68;82.38;97966.40;220869;1274;22707;-71
2022/04/02 23:02:54;;;;;;;8.90;4.10;;;;;;;-0.75;82.09;97964.70;220948;1276;22614;-71
2022/04/02 23:07:57;;;;;;;12.60;4.90;;;;;;;-0.79;81.85;97967.83;221263;1274;22575;-71
2022/04/02 23:13:03;;;;;;;9.00;4.00;;;;;;;-0.84;81.90;97965.95;221021;1274;22555;-71
2022/04/02 23:18:06;;;;;;;13.90;5.10;;;;;;;-0.87;81.64;97970.09;220847;1275;22474;-72
2022/04/02 23:23:08;;;;;;;12.30;4.80;;;;;;;-0.91;81.51;97971.27;220749;1274;22575;-72
2022/04/02 23:28:11;;;;;;;12.80;4.50;;;;;;;-0.95;81.35;97969.00;220743;1275;22463;-72
2022/04/02 23:33:13;;;;;;;9.50;4.30;;;;;;;-0.97;81.24;97974.58;220647;1275;22709;-71
2022/04/02 23:38:15;;;;;;;8.60;4.00;;;;;;;-1.00;80.85;97983.55;220767;1274;22678;-71
2022/04/02 23:43:19;;;;;;;8.40;4.10;;;;;;;-1.04;80.71;97983.74;221136;1274;23362;-69
2022/04/02 23:48:23;;;;;;;11.00;4.80;;;;;;;-1.09;80.52;97986.33;221093;1274;23811;-70
2022/04/02 23:53:25;;;;;;;10.10;4.80;;;;;;;-1.13;80.16;97989.73;220929;1275;24001;-70
2022/04/02 23:58:27;;;;;;;8.70;4.60;;;;;;;-1.16;80.09;97996.02;219799;1275;23815;-70
